Terminal Aerodrome Forecast
Issued by NWS Grand Forks, ND

Home | Current Version | Previous Version | Graphics & Text | Print | Product List | Glossary On
Versions: 1 2 3 4 5 6 7 8 9 10 11 12 13 14 15 16
000
FTUS43 KFGF 232334
TAFGFK
TAF
KGFK 232334Z 2400/2424 14012KT P6SM SCT060 BKN100
     FM240500 14011KT P6SM VCTS SCT060CB BKN100
     FM240900 15009KT P6SM BKN100
     FM241400 18011KT P6SM BKN200
     FM242300 20013KT P6SM FEW050 SCT100=

USA.gov is the U.S. government's official web portal to all federal, state and local government web resources and services.